createdAt,value
2022-10-19T00:02:28.700Z,2.25
2022-10-19T00:05:15.592Z,2.88
2022-10-19T00:08:02.836Z,2.83
2022-10-19T00:10:49.713Z,2.60
2022-10-19T00:13:36.605Z,2.92
2022-10-19T00:16:29.308Z,2.25
2022-10-19T00:19:18.925Z,2.40
2022-10-19T00:22:10.341Z,2.28
2022-10-19T00:24:59.919Z,1.98
2022-10-19T00:27:46.764Z,2.50
2022-10-19T00:30:37.469Z,2.30
2022-10-19T00:33:24.296Z,2.33
2022-10-19T00:36:22.145Z,2.03
2022-10-19T00:39:15.377Z,2.30
2022-10-19T00:42:02.170Z,1.95
2022-10-19T00:44:48.876Z,2.17
2022-10-19T00:47:35.656Z,1.80
2022-10-19T00:50:22.654Z,1.95
2022-10-19T00:53:09.939Z,2.05
2022-10-19T00:56:03.291Z,2.13
2022-10-19T01:01:37.267Z,2.10
2022-10-19T01:04:29.029Z,2.42
2022-10-19T01:07:16.308Z,2.45
2022-10-19T01:10:03.901Z,2.00
2022-10-19T01:13:09.548Z,2.20
2022-10-19T01:16:10.115Z,2.35
2022-10-19T01:19:39.573Z,2.30
2022-10-19T01:23:10.169Z,2.83
2022-10-19T01:26:15.175Z,2.15
2022-10-19T01:29:11.071Z,2.00
2022-10-19T01:32:08.166Z,2.22
2022-10-19T01:35:03.776Z,2.60
2022-10-19T01:38:03.770Z,2.30
2022-10-19T01:41:02.617Z,2.00
2022-10-19T01:44:08.056Z,2.90
2022-10-19T01:46:58.144Z,3.60
2022-10-19T01:49:55.992Z,2.63
2022-10-19T01:52:43.572Z,3.28
2022-10-19T01:55:31.633Z,2.20
2022-10-19T01:58:28.793Z,2.35
2022-10-19T02:01:18.957Z,2.17
2022-10-19T02:04:10.301Z,2.40
2022-10-19T02:07:01.942Z,2.45
2022-10-19T02:09:48.891Z,2.03
2022-10-19T02:12:37.547Z,2.58
2022-10-19T02:15:28.124Z,2.67
2022-10-19T02:18:19.653Z,3.78
2022-10-19T02:21:07.422Z,2.83
2022-10-19T02:23:54.524Z,1.98
2022-10-19T02:26:41.623Z,2.35
2022-10-19T02:29:28.542Z,2.00
2022-10-19T02:32:15.443Z,2.30
2022-10-19T02:34:42.541Z,2.00
2022-10-19T02:37:09.201Z,2.47
2022-10-19T02:39:35.791Z,2.28
2022-10-19T02:42:11.087Z,2.40
2022-10-19T02:44:53.091Z,2.60
2022-10-19T02:47:28.527Z,1.85
2022-10-19T02:49:57.286Z,2.38
2022-10-19T02:52:23.742Z,2.50
2022-10-19T02:54:50.237Z,2.85
2022-10-19T02:57:17.835Z,2.50
2022-10-19T02:59:44.908Z,1.98
2022-10-19T03:02:11.928Z,2.47
2022-10-19T03:04:38.489Z,2.30
2022-10-19T03:07:05.024Z,2.38
2022-10-19T03:09:33.945Z,2.13
2022-10-19T03:12:00.396Z,2.47
2022-10-19T03:14:27.965Z,2.60
2022-10-19T03:16:55.099Z,2.08
2022-10-19T03:19:21.628Z,3.00
2022-10-19T03:21:48.064Z,2.40
2022-10-19T03:24:14.494Z,2.15
2022-10-19T03:26:40.954Z,2.28
2022-10-19T03:29:07.485Z,2.10
2022-10-19T03:31:34.218Z,2.88
2022-10-19T03:34:01.938Z,2.40
2022-10-19T03:36:31.297Z,2.40
2022-10-19T03:39:00.826Z,2.58
2022-10-19T03:41:30.018Z,2.50
2022-10-19T03:43:57.615Z,2.38
2022-10-19T03:46:24.570Z,2.88
2022-10-19T03:48:51.056Z,2.45
2022-10-19T03:51:20.259Z,2.35
2022-10-19T03:53:47.060Z,2.55
2022-10-19T03:56:15.396Z,2.47
2022-10-19T03:58:43.942Z,2.90
2022-10-19T04:01:13.714Z,2.80
2022-10-19T04:03:40.207Z,2.47
2022-10-19T04:06:18.205Z,2.60
2022-10-19T04:08:49.068Z,2.53
2022-10-19T04:11:18.228Z,2.65
2022-10-19T04:13:44.672Z,2.65
2022-10-19T04:16:13.886Z,2.72
2022-10-19T04:18:42.713Z,2.45
2022-10-19T04:21:24.472Z,2.00
2022-10-19T04:23:52.859Z,2.53
2022-10-19T04:26:20.235Z,2.17
2022-10-19T04:28:47.091Z,1.60
2022-10-19T04:31:13.733Z,2.15
2022-10-19T04:33:41.078Z,1.73
2022-10-19T04:36:09.962Z,1.15
2022-10-19T04:38:37.300Z,2.25
2022-10-19T04:41:09.031Z,2.67
2022-10-19T04:43:35.901Z,1.38
2022-10-19T04:46:10.924Z,1.50
2022-10-19T04:48:39.069Z,2.17
2022-10-19T04:51:05.984Z,2.72
2022-10-19T04:53:34.152Z,3.47
2022-10-19T04:56:04.880Z,2.28
2022-10-19T04:58:31.375Z,3.28
2022-10-19T05:00:57.883Z,2.15
2022-10-19T05:03:24.462Z,3.08
2022-10-19T05:05:50.892Z,3.90
2022-10-19T05:08:17.448Z,3.63
2022-10-19T05:10:47.000Z,3.03
2022-10-19T05:13:14.644Z,1.92
2022-10-19T05:15:41.205Z,1.60
2022-10-19T05:18:07.619Z,2.85
2022-10-19T05:20:34.158Z,2.05
2022-10-19T05:23:04.700Z,2.95
2022-10-19T05:25:33.688Z,2.75
2022-10-19T05:28:02.181Z,3.08
2022-10-19T05:30:28.791Z,2.65
2022-10-19T05:32:55.256Z,2.97
2022-10-19T05:35:22.656Z,2.40
2022-10-19T05:37:55.196Z,2.05
2022-10-19T05:40:21.668Z,2.17
2022-10-19T05:42:48.164Z,2.10
2022-10-19T05:45:14.697Z,2.40
2022-10-19T05:47:41.148Z,1.85
2022-10-19T05:50:07.987Z,1.85
2022-10-19T05:52:34.424Z,1.70
2022-10-19T05:55:00.851Z,2.10
2022-10-19T05:57:27.352Z,1.70
2022-10-19T05:59:56.637Z,2.28
2022-10-19T06:02:23.084Z,1.80
2022-10-19T06:04:49.713Z,1.73
2022-10-19T06:07:16.196Z,2.10
2022-10-19T06:09:42.825Z,1.63
2022-10-19T06:12:09.290Z,2.17
2022-10-19T06:14:35.754Z,1.90
2022-10-19T06:17:02.298Z,1.67
2022-10-19T06:19:33.163Z,2.83
2022-10-19T06:21:59.649Z,2.53
2022-10-19T06:24:26.121Z,1.92
2022-10-19T06:26:52.596Z,2.20
2022-10-19T06:29:21.429Z,2.17
2022-10-19T06:31:48.054Z,2.05
2022-10-19T06:34:14.541Z,1.70
2022-10-19T06:36:43.374Z,2.28
2022-10-19T06:39:11.920Z,2.00
2022-10-19T06:41:40.662Z,0.77
2022-10-19T06:44:20.325Z,1.30
2022-10-19T06:46:49.048Z,2.00
2022-10-19T06:49:17.552Z,1.48
2022-10-19T06:51:46.389Z,1.50
2022-10-19T06:54:12.933Z,1.58
2022-10-19T06:56:39.419Z,1.92
2022-10-19T06:59:05.901Z,1.80
2022-10-19T07:01:34.706Z,1.88
2022-10-19T07:04:01.290Z,1.63
2022-10-19T07:06:28.758Z,1.90
2022-10-19T07:08:55.311Z,2.20
2022-10-19T07:11:22.512Z,1.83
2022-10-19T07:13:53.319Z,1.90
2022-10-19T07:16:23.023Z,1.45
2022-10-19T07:18:52.026Z,1.58
2022-10-19T07:21:19.573Z,1.77
2022-10-19T07:23:47.294Z,1.50
2022-10-19T07:26:21.186Z,1.90
2022-10-19T07:28:48.897Z,1.75
2022-10-19T07:31:20.751Z,1.95
2022-10-19T07:33:54.915Z,1.60
2022-10-19T07:36:22.409Z,1.67
2022-10-19T07:38:51.993Z,1.65
2022-10-19T07:41:21.181Z,1.98
2022-10-19T07:43:51.221Z,1.77
2022-10-19T07:46:20.088Z,2.45
2022-10-19T07:48:47.165Z,1.77
2022-10-19T07:51:18.143Z,1.65
2022-10-19T07:53:45.324Z,1.80
2022-10-19T07:56:26.377Z,1.80
2022-10-19T07:58:57.135Z,2.05
2022-10-19T08:01:29.550Z,1.42
2022-10-19T08:06:45.861Z,1.77
2022-10-19T08:09:27.785Z,1.73
2022-10-19T08:11:58.835Z,1.48
2022-10-19T08:14:25.908Z,1.42
2022-10-19T08:16:54.926Z,1.40
2022-10-19T08:19:22.558Z,1.83
2022-10-19T08:21:49.103Z,1.73
2022-10-19T08:24:20.168Z,2.35
2022-10-19T08:26:46.677Z,1.88
2022-10-19T08:29:15.815Z,1.98
2022-10-19T08:31:44.361Z,2.67
2022-10-19T08:34:12.398Z,2.17
2022-10-19T08:39:17.735Z,2.00
2022-10-19T08:41:58.881Z,1.83
2022-10-19T08:44:46.568Z,1.73
2022-10-19T08:47:24.953Z,0.85
2022-10-19T08:49:52.078Z,2.00
2022-10-19T08:52:21.545Z,1.77
2022-10-19T08:54:57.545Z,1.52
2022-10-19T08:58:07.261Z,1.83
2022-10-19T09:00:55.777Z,1.80
2022-10-19T09:03:54.502Z,1.58
2022-10-19T09:06:34.772Z,2.05
2022-10-19T09:09:01.412Z,1.65
2022-10-19T09:11:34.259Z,1.90
2022-10-19T09:14:10.428Z,1.83
2022-10-19T09:16:39.449Z,1.90
2022-10-19T09:19:25.439Z,1.92
2022-10-19T09:21:57.408Z,2.88
2022-10-19T09:24:54.717Z,2.65
2022-10-19T09:27:21.150Z,2.20
2022-10-19T09:29:49.487Z,2.42
2022-10-19T09:32:24.098Z,1.98
2022-10-19T09:34:56.996Z,1.67
2022-10-19T09:37:26.601Z,2.20
2022-10-19T09:39:55.638Z,1.92
2022-10-19T09:42:40.252Z,2.50
2022-10-19T09:45:57.293Z,1.17
2022-10-19T09:48:33.549Z,2.53
2022-10-19T09:51:02.425Z,2.83
2022-10-19T09:53:30.106Z,2.80
2022-10-19T09:56:06.541Z,3.28
2022-10-19T09:58:34.091Z,2.72
2022-10-19T10:01:02.730Z,1.83
2022-10-19T10:03:40.751Z,3.20
2022-10-19T10:06:08.758Z,2.83
2022-10-19T10:09:03.502Z,3.10
2022-10-19T10:11:35.761Z,2.72
2022-10-19T10:14:19.800Z,3.00
2022-10-19T10:16:46.793Z,2.55
2022-10-19T10:19:16.132Z,2.75
2022-10-19T10:21:50.160Z,3.72
2022-10-19T10:24:23.304Z,2.33
2022-10-19T10:26:55.457Z,3.70
2022-10-19T10:29:30.527Z,3.67
2022-10-19T10:32:06.329Z,2.47
2022-10-19T10:34:50.162Z,3.17
2022-10-19T10:37:40.362Z,1.52
2022-10-19T10:40:25.016Z,3.90
2022-10-19T10:42:54.247Z,3.13
2022-10-19T10:45:33.116Z,3.10
2022-10-19T10:48:18.284Z,1.70
2022-10-19T10:50:47.948Z,3.30
2022-10-19T10:53:35.532Z,4.38
2022-10-19T10:56:02.753Z,3.40
2022-10-19T10:58:47.568Z,3.45
2022-10-19T11:01:26.810Z,1.85
2022-10-19T11:04:00.662Z,3.60
2022-10-19T11:06:27.127Z,4.10
2022-10-19T11:09:07.011Z,1.90
2022-10-19T11:11:43.136Z,2.30
2022-10-19T11:14:46.701Z,2.80
2022-10-19T11:17:22.344Z,1.98
2022-10-19T11:19:51.322Z,4.10
2022-10-19T11:22:27.230Z,3.97
2022-10-19T11:25:13.433Z,4.18
2022-10-19T11:27:45.359Z,1.88
2022-10-19T11:30:25.230Z,4.47
2022-10-19T11:32:54.057Z,4.10
2022-10-19T11:35:42.237Z,2.67
2022-10-19T11:38:30.530Z,3.20
2022-10-19T11:41:26.833Z,3.08
2022-10-19T11:43:56.062Z,4.30
2022-10-19T11:46:48.832Z,5.03
2022-10-19T11:49:36.384Z,3.85
2022-10-19T11:52:23.071Z,3.92
2022-10-19T11:55:07.859Z,3.15
2022-10-19T11:58:01.967Z,2.97
2022-10-19T12:00:39.244Z,4.38
2022-10-19T12:03:28.118Z,2.88
2022-10-19T12:06:13.732Z,3.25
2022-10-19T12:09:17.831Z,3.10
2022-10-19T12:11:59.734Z,3.63
2022-10-19T12:14:32.788Z,5.05
2022-10-19T12:17:17.172Z,3.33
2022-10-19T12:19:52.344Z,2.80
2022-10-19T12:22:30.669Z,3.30
2022-10-19T12:25:03.741Z,1.25
2022-10-19T12:27:36.250Z,3.88
2022-10-19T12:30:18.276Z,3.25
2022-10-19T12:32:58.090Z,2.13
2022-10-19T12:35:31.480Z,3.28
2022-10-19T12:38:05.447Z,3.28
2022-10-19T12:40:53.837Z,0.93
2022-10-19T12:43:30.625Z,3.33
2022-10-19T12:46:17.544Z,2.30
2022-10-19T12:48:44.001Z,3.13
2022-10-19T12:51:13.171Z,3.05
2022-10-19T12:53:49.122Z,2.95
2022-10-19T12:56:22.107Z,2.55
2022-10-19T12:58:52.903Z,1.90
2022-10-19T13:01:26.580Z,2.65
2022-10-19T13:04:07.660Z,2.42
2022-10-19T13:06:38.356Z,3.25
2022-10-19T13:09:07.963Z,2.75
2022-10-19T13:17:07.618Z,2.40
2022-10-19T13:19:34.312Z,2.05
2022-10-19T13:22:27.345Z,1.88
2022-10-19T13:25:30.252Z,1.13
2022-10-19T13:27:56.726Z,1.35
2022-10-19T13:30:38.287Z,1.85
2022-10-19T13:33:28.256Z,2.25
2022-10-19T13:36:00.607Z,2.15
2022-10-19T13:38:31.206Z,1.38
2022-10-19T13:41:03.512Z,1.98
2022-10-19T13:43:33.677Z,2.50
2022-10-19T13:46:07.973Z,2.25
2022-10-19T13:48:46.732Z,1.05
2022-10-19T13:51:34.854Z,2.65
2022-10-19T13:54:20.374Z,2.65
2022-10-19T13:57:03.659Z,2.72
2022-10-19T13:59:41.922Z,2.63
2022-10-19T14:02:45.802Z,2.63
2022-10-19T14:05:52.317Z,2.35
2022-10-19T14:08:50.904Z,1.33
2022-10-19T14:11:19.443Z,2.72
2022-10-19T14:14:06.320Z,1.58
2022-10-19T14:16:32.801Z,2.05
2022-10-19T14:18:59.464Z,2.08
2022-10-19T14:21:34.262Z,2.17
2022-10-19T14:24:00.997Z,2.17
2022-10-19T14:26:30.847Z,1.67
2022-10-19T14:29:00.694Z,1.95
2022-10-19T14:31:37.157Z,1.77
2022-10-19T14:34:09.258Z,2.15
2022-10-19T14:36:43.753Z,2.30
2022-10-19T14:39:40.144Z,1.90
2022-10-19T14:42:10.227Z,1.60
2022-10-19T14:44:38.559Z,2.25
2022-10-19T14:47:23.403Z,2.28
2022-10-19T14:49:50.746Z,1.25
2022-10-19T14:55:12.737Z,2.05
2022-10-19T14:57:45.573Z,1.48
2022-10-19T15:00:18.318Z,2.83
2022-10-19T15:05:23.117Z,2.13
2022-10-19T15:07:50.512Z,1.73
2022-10-19T15:10:21.324Z,1.80
2022-10-19T15:12:50.233Z,1.98
2022-10-19T15:15:21.509Z,1.92
2022-10-19T15:18:04.088Z,1.65
2022-10-19T15:20:43.946Z,1.48
2022-10-19T15:23:44.320Z,1.90
2022-10-19T15:26:17.368Z,1.52
2022-10-19T15:28:45.042Z,2.67
2022-10-19T15:31:32.321Z,2.00
2022-10-19T15:34:03.731Z,1.65
2022-10-19T15:36:32.656Z,1.42
2022-10-19T15:39:18.446Z,2.35
2022-10-19T15:41:51.916Z,2.00
2022-10-19T15:44:43.363Z,2.45
2022-10-19T15:47:15.905Z,1.85
2022-10-19T15:49:44.603Z,1.90
2022-10-19T15:52:18.253Z,2.95
2022-10-19T15:54:49.114Z,2.15
2022-10-19T15:57:32.787Z,1.10
2022-10-19T16:00:14.510Z,2.85
2022-10-19T16:02:43.273Z,2.60
2022-10-19T16:05:10.041Z,2.47
2022-10-19T16:07:39.246Z,2.60
2022-10-19T16:10:07.239Z,2.17
2022-10-19T16:12:33.779Z,2.63
2022-10-19T16:15:02.646Z,2.70
2022-10-19T16:17:29.111Z,2.55
2022-10-19T16:19:55.532Z,2.88
2022-10-19T16:22:22.025Z,3.17
2022-10-19T16:24:50.849Z,2.35
2022-10-19T16:27:19.428Z,2.88
2022-10-19T16:29:48.006Z,2.53
2022-10-19T16:32:16.972Z,2.53
2022-10-19T16:34:43.488Z,2.33
2022-10-19T16:37:09.910Z,2.92
2022-10-19T16:39:36.363Z,1.90
2022-10-19T16:42:05.170Z,2.58
2022-10-19T16:44:31.823Z,2.38
2022-10-19T16:47:02.125Z,3.08
2022-10-19T16:49:28.709Z,3.22
2022-10-19T16:51:57.411Z,2.42
2022-10-19T16:54:26.517Z,2.15
2022-10-19T16:56:55.761Z,3.58
2022-10-19T16:59:22.642Z,2.92
2022-10-19T17:01:51.668Z,3.08
2022-10-19T17:04:36.944Z,2.95
2022-10-19T17:07:22.599Z,3.03
2022-10-19T17:10:09.773Z,2.75
2022-10-19T17:12:56.569Z,2.50
2022-10-19T17:15:43.726Z,3.40
2022-10-19T17:18:30.615Z,3.10
2022-10-19T17:21:19.857Z,4.05
2022-10-19T17:24:13.850Z,3.63
2022-10-19T17:27:06.377Z,3.45
2022-10-19T17:29:55.815Z,3.28
2022-10-19T17:32:42.727Z,2.53
2022-10-19T17:35:29.513Z,4.10
2022-10-19T17:38:16.304Z,3.63
2022-10-19T17:41:05.891Z,3.60
2022-10-19T17:43:53.509Z,4.18
2022-10-19T17:46:40.407Z,3.63
2022-10-19T17:49:27.368Z,3.80
2022-10-19T17:52:14.162Z,2.60
2022-10-19T17:55:11.655Z,3.35
2022-10-19T17:58:01.886Z,2.78
2022-10-19T18:00:53.562Z,4.25
2022-10-19T18:03:41.271Z,3.35
2022-10-19T18:06:33.887Z,4.40
2022-10-19T18:09:20.656Z,2.20
2022-10-19T18:12:13.053Z,3.92
2022-10-19T18:14:59.893Z,5.40
2022-10-19T18:17:46.782Z,5.72
2022-10-19T18:20:33.556Z,5.38
2022-10-19T18:23:20.336Z,5.38
2022-10-19T18:26:10.161Z,4.97
2022-10-19T18:28:57.953Z,4.78
2022-10-19T18:31:49.007Z,4.97
2022-10-19T18:34:38.576Z,4.47
2022-10-19T18:37:25.406Z,4.15
2022-10-19T18:40:12.291Z,4.40
2022-10-19T18:42:59.168Z,3.33
2022-10-19T18:45:54.047Z,4.45
2022-10-19T18:48:40.816Z,4.25
2022-10-19T18:51:28.299Z,4.63
2022-10-19T18:54:15.077Z,4.18
2022-10-19T18:57:01.893Z,5.15
2022-10-19T18:59:48.675Z,3.13
2022-10-19T19:02:46.406Z,5.40
2022-10-19T19:05:33.904Z,4.28
2022-10-19T19:08:20.669Z,3.70
2022-10-19T19:11:12.420Z,3.20
2022-10-19T19:14:02.275Z,4.00
2022-10-19T19:16:49.282Z,4.20
2022-10-19T19:19:36.189Z,4.70
2022-10-19T19:22:25.977Z,3.90
2022-10-19T19:25:12.796Z,3.65
2022-10-19T19:27:59.563Z,5.00
2022-10-19T19:30:46.879Z,3.65
2022-10-19T19:33:34.073Z,4.47
2022-10-19T19:36:21.201Z,4.28
2022-10-19T19:39:08.028Z,2.38
2022-10-19T19:41:54.809Z,3.97
2022-10-19T19:44:41.570Z,3.15
2022-10-19T19:47:28.423Z,4.15
2022-10-19T19:50:17.593Z,2.83
2022-10-19T19:53:04.843Z,2.22
2022-10-19T19:55:51.612Z,4.00
2022-10-19T19:58:39.284Z,3.35
2022-10-19T20:01:26.677Z,3.45
2022-10-19T20:04:13.571Z,2.53
2022-10-19T20:07:00.377Z,2.25
2022-10-19T20:09:47.142Z,2.08
2022-10-19T20:12:33.925Z,2.53
2022-10-19T20:15:20.806Z,3.33
2022-10-19T20:18:07.649Z,2.17
2022-10-19T20:20:54.448Z,3.53
2022-10-19T20:23:45.267Z,2.45
2022-10-19T20:26:32.332Z,2.35
2022-10-19T20:29:19.113Z,2.42
2022-10-19T20:32:05.940Z,2.05
2022-10-19T20:34:54.841Z,2.05
2022-10-19T20:37:48.324Z,1.48
2022-10-19T20:43:24.189Z,1.75
2022-10-19T20:46:23.189Z,1.60
2022-10-19T20:49:11.604Z,1.58
2022-10-19T20:52:00.728Z,2.40
2022-10-19T20:54:50.485Z,1.88
2022-10-19T20:57:37.324Z,1.95
2022-10-19T21:00:24.108Z,0.70
2022-10-19T21:03:10.877Z,1.13
2022-10-19T21:05:57.616Z,1.48
2022-10-19T21:08:46.782Z,2.05
2022-10-19T21:11:36.200Z,1.90
2022-10-19T21:14:28.065Z,1.48
2022-10-19T21:17:17.999Z,2.63
2022-10-19T21:20:05.065Z,1.30
2022-10-19T21:22:51.867Z,2.38
2022-10-19T21:25:38.624Z,1.65
2022-10-19T21:28:25.391Z,3.72
2022-10-19T21:31:15.459Z,2.08
2022-10-19T21:34:11.979Z,1.95
2022-10-19T21:36:59.080Z,1.73
2022-10-19T21:39:45.840Z,2.25
2022-10-19T21:42:32.660Z,1.83
2022-10-19T21:45:29.828Z,1.45
2022-10-19T21:48:16.976Z,1.63
2022-10-19T21:51:17.147Z,2.20
2022-10-19T21:57:00.318Z,0.73
2022-10-19T21:59:47.056Z,1.92
2022-10-19T22:02:33.850Z,2.20
2022-10-19T22:05:21.103Z,1.42
2022-10-19T22:08:07.857Z,1.42
2022-10-19T22:10:54.702Z,2.28
2022-10-19T22:13:42.093Z,1.35
2022-10-19T22:16:30.061Z,2.03
2022-10-19T22:19:16.876Z,1.73
2022-10-19T22:22:03.642Z,2.25
2022-10-19T22:24:50.454Z,1.77
2022-10-19T22:27:37.268Z,2.60
2022-10-19T22:30:26.998Z,1.27
2022-10-19T22:33:14.555Z,2.45
2022-10-19T22:36:06.296Z,3.10
2022-10-19T22:38:53.096Z,1.95
2022-10-19T22:41:39.881Z,1.77
2022-10-19T22:44:28.774Z,1.33
2022-10-19T22:47:15.542Z,0.73
2022-10-19T22:50:02.379Z,3.03
2022-10-19T22:52:49.148Z,1.38
2022-10-19T22:55:36.341Z,1.25
2022-10-19T22:58:23.113Z,1.95
2022-10-19T23:01:12.300Z,1.95
2022-10-19T23:03:59.210Z,2.28
2022-10-19T23:06:45.964Z,2.45
2022-10-19T23:09:32.709Z,2.80
2022-10-19T23:12:19.560Z,2.38
2022-10-19T23:15:07.014Z,2.10
2022-10-19T23:17:53.823Z,1.48
2022-10-19T23:20:43.221Z,1.75
2022-10-19T23:23:32.081Z,2.20
2022-10-19T23:26:21.192Z,1.42
2022-10-19T23:29:07.994Z,1.35
2022-10-19T23:31:54.808Z,1.58
2022-10-19T23:34:44.457Z,2.33
2022-10-19T23:37:35.358Z,1.33
2022-10-19T23:40:22.316Z,1.75
2022-10-19T23:43:09.261Z,1.40
2022-10-19T23:45:56.406Z,1.48
2022-10-19T23:48:43.273Z,1.55
2022-10-19T23:51:30.256Z,2.03
2022-10-19T23:54:17.021Z,0.57
2022-10-19T23:57:03.913Z,1.42
2022-10-19T23:59:50.724Z,1.33
